sensor_id;sensor_type;location;lat;lon;timestamp;pressure;altitude;pressure_sealevel;temperature;humidity
72157;BME280;60035;52.122;5.406;2023-07-28T00:01:30;100586.34;;;18.21;100.00
72157;BME280;60035;52.122;5.406;2023-07-28T00:03:57;100584.59;;;18.21;100.00
72157;BME280;60035;52.122;5.406;2023-07-28T00:06:24;100584.59;;;18.21;100.00
72157;BME280;60035;52.122;5.406;2023-07-28T00:08:50;100592.38;;;18.21;100.00
72157;BME280;60035;52.122;5.406;2023-07-28T00:11:17;100588.63;;;18.25;100.00
72157;BME280;60035;52.122;5.406;2023-07-28T00:13:43;100592.06;;;18.26;100.00
72157;BME280;60035;52.122;5.406;2023-07-28T00:16:10;100576.53;;;18.26;100.00
72157;BME280;60035;52.122;5.406;2023-07-28T00:18:37;100576.31;;;18.29;100.00
72157;BME280;60035;52.122;5.406;2023-07-28T00:21:04;100576.31;;;18.29;100.00
72157;BME280;60035;52.122;5.406;2023-07-28T00:23:31;100578.91;;;18.29;100.00
72157;BME280;60035;52.122;5.406;2023-07-28T00:25:57;100573.72;;;18.29;100.00
72157;BME280;60035;52.122;5.406;2023-07-28T00:28:24;100571.94;;;18.29;100.00
72157;BME280;60035;52.122;5.406;2023-07-28T00:30:51;100580.56;;;18.30;100.00
72157;BME280;60035;52.122;5.406;2023-07-28T00:33:18;100576.41;;;18.27;100.00
72157;BME280;60035;52.122;5.406;2023-07-28T00:35:45;100577.22;;;18.28;100.00
72157;BME280;60035;52.122;5.406;2023-07-28T00:38:12;100573.81;;;18.27;100.00
72157;BME280;60035;52.122;5.406;2023-07-28T00:40:38;100577.22;;;18.28;100.00
72157;BME280;60035;52.122;5.406;2023-07-28T00:43:05;100574.66;;;18.28;100.00
72157;BME280;60035;52.122;5.406;2023-07-28T00:45:33;100570.59;;;18.24;100.00
72157;BME280;60035;52.122;5.406;2023-07-28T00:48:00;100580.25;;;18.22;100.00
72157;BME280;60035;52.122;5.406;2023-07-28T00:50:27;100572.56;;;18.20;100.00
72157;BME280;60035;52.122;5.406;2023-07-28T00:52:55;100576.91;;;18.20;100.00
72157;BME280;60035;52.122;5.406;2023-07-28T00:55:22;100574.31;;;18.20;100.00
72157;BME280;60035;52.122;5.406;2023-07-28T00:57:49;100571.53;;;18.23;100.00
72157;BME280;60035;52.122;5.406;2023-07-28T01:00:16;100573.28;;;18.22;100.00
72157;BME280;60035;52.122;5.406;2023-07-28T01:02:43;100569.03;;;18.21;100.00
72157;BME280;60035;52.122;5.406;2023-07-28T01:05:10;100571.53;;;18.23;100.00
72157;BME280;60035;52.122;5.406;2023-07-28T01:07:43;100579.41;;;18.21;100.00
72157;BME280;60035;52.122;5.406;2023-07-28T01:10:20;100578.59;;;18.21;100.00
72157;BME280;60035;52.122;5.406;2023-07-28T01:12:49;100587.19;;;18.21;100.00
72157;BME280;60035;52.122;5.406;2023-07-28T01:15:15;100579.50;;;18.20;100.00
72157;BME280;60035;52.122;5.406;2023-07-28T01:17:42;100582.09;;;18.20;100.00
72157;BME280;60035;52.122;5.406;2023-07-28T01:20:09;100580.44;;;18.19;100.00
72157;BME280;60035;52.122;5.406;2023-07-28T01:23:09;100583.03;;;18.19;100.00
72157;BME280;60035;52.122;5.406;2023-07-28T01:25:49;100585.63;;;18.19;100.00
72157;BME280;60035;52.122;5.406;2023-07-28T01:28:19;100585.63;;;18.19;100.00
72157;BME280;60035;52.122;5.406;2023-07-28T01:30:46;100591.72;;;18.18;100.00
72157;BME280;60035;52.122;5.406;2023-07-28T01:33:13;100589.97;;;18.18;100.00
72157;BME280;60035;52.122;5.406;2023-07-28T01:35:40;100592.56;;;18.18;100.00
72157;BME280;60035;52.122;5.406;2023-07-28T01:38:07;100602.09;;;18.18;100.00
72157;BME280;60035;52.122;5.406;2023-07-28T01:40:33;100599.44;;;18.19;100.00
72157;BME280;60035;52.122;5.406;2023-07-28T01:43:00;100600.13;;;18.21;100.00
72157;BME280;60035;52.122;5.406;2023-07-28T01:45:26;100597.66;;;18.20;100.00
72157;BME280;60035;52.122;5.406;2023-07-28T01:47:53;100599.44;;;18.19;100.00
72157;BME280;60035;52.122;5.406;2023-07-28T01:50:19;100598.56;;;18.19;100.00
72157;BME280;60035;52.122;5.406;2023-07-28T01:52:46;100595.88;;;18.20;100.00
72157;BME280;60035;52.122;5.406;2023-07-28T01:55:12;100594.25;;;18.19;100.00
72157;BME280;60035;52.122;5.406;2023-07-28T01:57:39;100590.69;;;18.20;100.00
72157;BME280;60035;52.122;5.406;2023-07-28T02:00:07;100589.78;;;18.21;100.00
72157;BME280;60035;52.122;5.406;2023-07-28T02:02:33;100589.78;;;18.21;100.00
72157;BME280;60035;52.122;5.406;2023-07-28T02:05:00;100594.84;;;18.23;100.00
72157;BME280;60035;52.122;5.406;2023-07-28T02:07:27;100594.84;;;18.23;100.00
72157;BME280;60035;52.122;5.406;2023-07-28T02:09:53;100588.94;;;18.21;100.00
72157;BME280;60035;52.122;5.406;2023-07-28T02:12:20;100596.72;;;18.21;100.00
72157;BME280;60035;52.122;5.406;2023-07-28T02:14:46;100601.06;;;18.20;100.00
72157;BME280;60035;52.122;5.406;2023-07-28T02:17:13;100604.59;;;18.19;100.00
72157;BME280;60035;52.122;5.406;2023-07-28T02:19:39;100607.28;;;18.18;100.00
72157;BME280;60035;52.122;5.406;2023-07-28T02:22:06;100599.59;;;18.16;100.00
72157;BME280;60035;52.122;5.406;2023-07-28T02:24:34;100589.13;;;18.18;100.00
72157;BME280;60035;52.122;5.406;2023-07-28T02:27:00;100583.25;;;18.15;100.00
72157;BME280;60035;52.122;5.406;2023-07-28T02:29:27;100596.09;;;18.17;100.00
72157;BME280;60035;52.122;5.406;2023-07-28T02:31:53;100590.09;;;18.17;100.00
72157;BME280;60035;52.122;5.406;2023-07-28T02:34:20;100588.94;;;18.21;100.00
72157;BME280;60035;52.122;5.406;2023-07-28T02:36:47;100588.09;;;18.20;100.00
72157;BME280;60035;52.122;5.406;2023-07-28T02:39:13;100586.47;;;18.19;100.00
72157;BME280;60035;52.122;5.406;2023-07-28T02:41:40;100590.81;;;18.19;100.00
72157;BME280;60035;52.122;5.406;2023-07-28T02:44:07;100595.88;;;18.20;100.00
72157;BME280;60035;52.122;5.406;2023-07-28T02:46:33;100599.44;;;18.19;100.00
72157;BME280;60035;52.122;5.406;2023-07-28T02:49:00;100594.13;;;18.21;100.00
72157;BME280;60035;52.122;5.406;2023-07-28T02:51:30;100599.22;;;18.22;100.00
72157;BME280;60035;52.122;5.406;2023-07-28T02:53:56;100604.41;;;18.22;100.00
72157;BME280;60035;52.122;5.406;2023-07-28T02:56:23;100602.72;;;18.21;100.00
72157;BME280;60035;52.122;5.406;2023-07-28T02:58:50;100607.19;;;18.19;100.00
72157;BME280;60035;52.122;5.406;2023-07-28T03:01:17;100609.69;;;18.21;100.00
72157;BME280;60035;52.122;5.406;2023-07-28T03:03:44;100619.19;;;18.20;100.00
72157;BME280;60035;52.122;5.406;2023-07-28T03:06:11;100609.69;;;18.21;100.00
72157;BME280;60035;52.122;5.406;2023-07-28T03:08:37;100611.25;;;18.23;100.00
72157;BME280;60035;52.122;5.406;2023-07-28T03:11:04;100613.00;;;18.23;100.00
72157;BME280;60035;52.122;5.406;2023-07-28T03:13:30;100618.91;;;18.25;100.00
72157;BME280;60035;52.122;5.406;2023-07-28T03:15:57;100616.31;;;18.25;100.00
72157;BME280;60035;52.122;5.406;2023-07-28T03:18:23;100622.22;;;18.27;100.00
72157;BME280;60035;52.122;5.406;2023-07-28T03:20:50;100622.22;;;18.27;100.00
72157;BME280;60035;52.122;5.406;2023-07-28T03:23:16;100623.88;;;18.28;100.00
72157;BME280;60035;52.122;5.406;2023-07-28T03:25:43;100624.75;;;18.28;100.00
72157;BME280;60035;52.122;5.406;2023-07-28T03:28:09;100629.06;;;18.28;100.00
72157;BME280;60035;52.122;5.406;2023-07-28T03:30:36;100628.16;;;18.29;100.00
72157;BME280;60035;52.122;5.406;2023-07-28T03:33:02;100628.91;;;18.31;100.00
72157;BME280;60035;52.122;5.406;2023-07-28T03:35:32;100630.63;;;18.30;100.00
72157;BME280;60035;52.122;5.406;2023-07-28T03:37:58;100638.53;;;18.29;100.00
72157;BME280;60035;52.122;5.406;2023-07-28T03:40:25;100633.22;;;18.30;100.00
72157;BME280;60035;52.122;5.406;2023-07-28T03:42:52;100640.19;;;18.30;100.00
72157;BME280;60035;52.122;5.406;2023-07-28T03:45:19;100638.41;;;18.30;100.00
72157;BME280;60035;52.122;5.406;2023-07-28T03:47:47;100641.84;;;18.31;100.00
72157;BME280;60035;52.122;5.406;2023-07-28T03:50:13;100650.66;;;18.28;100.00
72157;BME280;60035;52.122;5.406;2023-07-28T03:52:40;100643.59;;;18.30;100.00
72157;BME280;60035;52.122;5.406;2023-07-28T03:55:06;100643.59;;;18.30;100.00
72157;BME280;60035;52.122;5.406;2023-07-28T03:57:33;100643.59;;;18.30;100.00
72157;BME280;60035;52.122;5.406;2023-07-28T04:00:00;100642.78;;;18.30;100.00
72157;BME280;60035;52.122;5.406;2023-07-28T04:02:26;100646.09;;;18.32;100.00
72157;BME280;60035;52.122;5.406;2023-07-28T04:04:54;100646.81;;;18.34;100.00
72157;BME280;60035;52.122;5.406;2023-07-28T04:07:21;100643.38;;;18.34;100.00
72157;BME280;60035;52.122;5.406;2023-07-28T04:09:47;100642.47;;;18.35;100.00
72157;BME280;60035;52.122;5.406;2023-07-28T04:12:14;100655.31;;;18.36;100.00
72157;BME280;60035;52.122;5.406;2023-07-28T04:14:40;100647.53;;;18.36;100.00
72157;BME280;60035;52.122;5.406;2023-07-28T04:17:07;100648.38;;;18.37;100.00
72157;BME280;60035;52.122;5.406;2023-07-28T04:19:34;100651.81;;;18.37;100.00
72157;BME280;60035;52.122;5.406;2023-07-28T04:22:00;100642.34;;;18.36;100.00
72157;BME280;60035;52.122;5.406;2023-07-28T04:24:27;100649.31;;;18.36;100.00
72157;BME280;60035;52.122;5.406;2023-07-28T04:26:53;100642.34;;;18.36;100.00
72157;BME280;60035;52.122;5.406;2023-07-28T04:29:20;100652.84;;;18.35;100.00
72157;BME280;60035;52.122;5.406;2023-07-28T04:31:47;100650.06;;;18.38;100.00
72157;BME280;60035;52.122;5.406;2023-07-28T04:34:13;100651.63;;;18.40;100.00
72157;BME280;60035;52.122;5.406;2023-07-28T04:36:40;100650.88;;;18.38;100.00
72157;BME280;60035;52.122;5.406;2023-07-28T04:39:06;100658.66;;;18.38;100.00
72157;BME280;60035;52.122;5.406;2023-07-28T04:41:33;100658.53;;;18.40;100.00
72157;BME280;60035;52.122;5.406;2023-07-28T04:43:59;100662.00;;;18.40;100.00
72157;BME280;60035;52.122;5.406;2023-07-28T04:46:26;100658.66;;;18.38;100.00
72157;BME280;60035;52.122;5.406;2023-07-28T04:48:54;100659.47;;;18.39;100.00
72157;BME280;60035;52.122;5.406;2023-07-28T04:51:21;100660.31;;;18.39;100.00
72157;BME280;60035;52.122;5.406;2023-07-28T04:53:47;100660.22;;;18.41;100.00
72157;BME280;60035;52.122;5.406;2023-07-28T04:56:14;100671.22;;;18.44;100.00
72157;BME280;60035;52.122;5.406;2023-07-28T04:58:40;100669.34;;;18.46;100.00
72157;BME280;60035;52.122;5.406;2023-07-28T05:01:07;100669.56;;;18.43;100.00
72157;BME280;60035;52.122;5.406;2023-07-28T05:03:35;100671.41;;;18.41;100.00
72157;BME280;60035;52.122;5.406;2023-07-28T05:06:03;100672.97;;;18.31;100.00
72157;BME280;60035;52.122;5.406;2023-07-28T05:08:30;100669.41;;;18.32;100.00
72157;BME280;60035;52.122;5.406;2023-07-28T05:10:57;100671.81;;;18.35;100.00
72157;BME280;60035;52.122;5.406;2023-07-28T05:13:23;100673.28;;;18.39;100.00
72157;BME280;60035;52.122;5.406;2023-07-28T05:15:50;100663.03;;;18.38;100.00
72157;BME280;60035;52.122;5.406;2023-07-28T05:18:16;100671.41;;;18.41;100.00
72157;BME280;60035;52.122;5.406;2023-07-28T05:20:43;100668.09;;;18.39;100.00
72157;BME280;60035;52.122;5.406;2023-07-28T05:23:09;100667.78;;;18.44;100.00
72157;BME280;60035;52.122;5.406;2023-07-28T05:25:36;100674.75;;;18.43;100.00
72157;BME280;60035;52.122;5.406;2023-07-28T05:28:02;100675.38;;;18.47;100.00
72157;BME280;60035;52.122;5.406;2023-07-28T05:30:29;100660.44;;;18.51;100.00
72157;BME280;60035;52.122;5.406;2023-07-28T05:32:57;100672.25;;;18.55;100.00
72157;BME280;60035;52.122;5.406;2023-07-28T05:35:24;100666.47;;;18.64;100.00
72157;BME280;60035;52.122;5.406;2023-07-28T05:37:50;100667.19;;;18.66;100.00
72157;BME280;60035;52.122;5.406;2023-07-28T05:40:17;100666.47;;;18.64;100.00
72157;BME280;60035;52.122;5.406;2023-07-28T05:42:43;100674.47;;;18.61;100.00
72157;BME280;60035;52.122;5.406;2023-07-28T05:45:10;100677.38;;;18.56;100.00
72157;BME280;60035;52.122;5.406;2023-07-28T05:47:37;100675.38;;;18.60;100.00
72157;BME280;60035;52.122;5.406;2023-07-28T05:50:04;100686.38;;;18.63;100.00
72157;BME280;60035;52.122;5.406;2023-07-28T05:52:31;100687.03;;;18.67;100.00
72157;BME280;60035;52.122;5.406;2023-07-28T05:54:58;100689.19;;;18.73;100.00
72157;BME280;60035;52.122;5.406;2023-07-28T05:57:25;100696.25;;;18.71;100.00
72157;BME280;60035;52.122;5.406;2023-07-28T05:59:51;100681.53;;;18.72;100.00
72157;BME280;60035;52.122;5.406;2023-07-28T06:02:18;100691.28;;;18.81;100.00
72157;BME280;60035;52.122;5.406;2023-07-28T06:04:44;100698.97;;;18.82;100.00
72157;BME280;60035;52.122;5.406;2023-07-28T06:07:11;100699.06;;;18.81;100.00
72157;BME280;60035;52.122;5.406;2023-07-28T06:09:38;100700.03;;;18.80;100.00
72157;BME280;60035;52.122;5.406;2023-07-28T06:12:05;100692.03;;;18.83;100.00
72157;BME280;60035;52.122;5.406;2023-07-28T06:14:31;100693.47;;;18.87;100.00
72157;BME280;60035;52.122;5.406;2023-07-28T06:16:58;100699.44;;;18.89;100.00
72157;BME280;60035;52.122;5.406;2023-07-28T06:19:25;100700.03;;;18.93;100.00
72157;BME280;60035;52.122;5.406;2023-07-28T06:21:51;100702.22;;;18.99;100.00
72157;BME280;60035;52.122;5.406;2023-07-28T06:24:18;100702.53;;;19.07;100.00
72157;BME280;60035;52.122;5.406;2023-07-28T06:26:45;100714.06;;;19.16;100.00
72157;BME280;60035;52.122;5.406;2023-07-28T06:29:12;100713.03;;;19.19;100.00
72157;BME280;60035;52.122;5.406;2023-07-28T06:31:38;100714.06;;;19.16;100.00
72157;BME280;60035;52.122;5.406;2023-07-28T06:34:05;100722.28;;;19.23;100.00
72157;BME280;60035;52.122;5.406;2023-07-28T06:36:32;100716.22;;;19.22;100.00
72157;BME280;60035;52.122;5.406;2023-07-28T06:38:59;100722.69;;;19.17;100.00
72157;BME280;60035;52.122;5.406;2023-07-28T06:41:26;100726.19;;;19.15;100.00
72157;BME280;60035;52.122;5.406;2023-07-28T06:43:52;100730.69;;;19.13;100.00
72157;BME280;60035;52.122;5.406;2023-07-28T06:46:19;100735.88;;;19.13;100.00
72157;BME280;60035;52.122;5.406;2023-07-28T06:48:45;100739.00;;;19.19;100.00
72157;BME280;60035;52.122;5.406;2023-07-28T06:51:12;100746.25;;;19.13;100.00
72157;BME280;60035;52.122;5.406;2023-07-28T06:53:38;100750.81;;;19.10;100.00
72157;BME280;60035;52.122;5.406;2023-07-28T06:56:05;100749.66;;;19.14;100.00
72157;BME280;60035;52.122;5.406;2023-07-28T06:58:32;100753.41;;;19.10;100.00
72157;BME280;60035;52.122;5.406;2023-07-28T07:00:58;100756.84;;;19.10;100.00
72157;BME280;60035;52.122;5.406;2023-07-28T07:03:24;100753.19;;;19.13;100.00
72157;BME280;60035;52.122;5.406;2023-07-28T07:05:51;100755.91;;;19.11;100.00
72157;BME280;60035;52.122;5.406;2023-07-28T07:08:18;100757.56;;;19.12;100.00
72157;BME280;60035;52.122;5.406;2023-07-28T07:10:51;100757.16;;;19.19;100.00
72157;BME280;60035;52.122;5.406;2023-07-28T07:13:19;100758.41;;;19.26;100.00
72157;BME280;60035;52.122;5.406;2023-07-28T07:15:46;100758.09;;;19.30;100.00
72157;BME280;60035;52.122;5.406;2023-07-28T07:18:12;100762.97;;;19.35;100.00
72157;BME280;60035;52.122;5.406;2023-07-28T07:20:39;100768.06;;;19.37;100.00
72157;BME280;60035;52.122;5.406;2023-07-28T07:23:06;100768.16;;;19.35;100.00
72157;BME280;60035;52.122;5.406;2023-07-28T07:25:33;100769.19;;;19.45;100.00
72157;BME280;60035;52.122;5.406;2023-07-28T07:28:00;100768.38;;;19.45;100.00
72157;BME280;60035;52.122;5.406;2023-07-28T07:30:26;100773.66;;;19.43;100.00
72157;BME280;60035;52.122;5.406;2023-07-28T07:32:53;100771.69;;;19.47;100.00
72157;BME280;60035;52.122;5.406;2023-07-28T07:35:20;100776.88;;;19.47;100.00
72157;BME280;60035;52.122;5.406;2023-07-28T07:37:46;100781.97;;;19.48;100.00
72157;BME280;60035;52.122;5.406;2023-07-28T07:40:13;100784.69;;;19.47;100.00
72157;BME280;60035;52.122;5.406;2023-07-28T07:42:47;100786.34;;;19.48;100.00
72157;BME280;60035;52.122;5.406;2023-07-28T07:45:14;100795.69;;;19.51;100.00
72157;BME280;60035;52.122;5.406;2023-07-28T07:47:42;100793.81;;;19.53;100.00
72157;BME280;60035;52.122;5.406;2023-07-28T07:50:10;100797.03;;;19.56;100.00
72157;BME280;60035;52.122;5.406;2023-07-28T07:52:38;100795.25;;;19.70;100.00
72157;BME280;60035;52.122;5.406;2023-07-28T07:55:09;100807.53;;;19.80;100.00
72157;BME280;60035;52.122;5.406;2023-07-28T07:57:35;100805.97;;;19.91;100.00
72157;BME280;60035;52.122;5.406;2023-07-28T08:00:02;100808.88;;;19.99;100.00
72157;BME280;60035;52.122;5.406;2023-07-28T08:02:29;100808.94;;;20.10;100.00
72157;BME280;60035;52.122;5.406;2023-07-28T08:04:55;100804.59;;;20.11;100.00
72157;BME280;60035;52.122;5.406;2023-07-28T08:07:22;100812.88;;;20.16;100.00
72157;BME280;60035;52.122;5.406;2023-07-28T08:09:52;100812.00;;;20.28;100.00
72157;BME280;60035;52.122;5.406;2023-07-28T08:12:20;100820.25;;;20.46;100.00
72157;BME280;60035;52.122;5.406;2023-07-28T08:14:48;100811.09;;;20.54;100.00
72157;BME280;60035;52.122;5.406;2023-07-28T08:17:15;100821.53;;;20.65;100.00
72157;BME280;60035;52.122;5.406;2023-07-28T08:19:41;100813.94;;;20.75;100.00
72157;BME280;60035;52.122;5.406;2023-07-28T08:22:08;100817.22;;;20.77;100.00
72157;BME280;60035;52.122;5.406;2023-07-28T08:24:34;100815.28;;;20.92;100.00
72157;BME280;60035;52.122;5.406;2023-07-28T08:27:01;100815.44;;;21.02;100.00
72157;BME280;60035;52.122;5.406;2023-07-28T08:29:27;100817.84;;;21.16;100.00
72157;BME280;60035;52.122;5.406;2023-07-28T08:31:54;100819.53;;;21.40;100.00
72157;BME280;60035;52.122;5.406;2023-07-28T08:34:20;100821.22;;;21.41;100.00
72157;BME280;60035;52.122;5.406;2023-07-28T08:36:47;100823.31;;;21.47;100.00
72157;BME280;60035;52.122;5.406;2023-07-28T08:39:14;100831.88;;;21.49;100.00
72157;BME280;60035;52.122;5.406;2023-07-28T08:41:41;100830.91;;;21.39;100.00
72157;BME280;60035;52.122;5.406;2023-07-28T08:44:08;100832.44;;;21.41;100.00
72157;BME280;60035;52.122;5.406;2023-07-28T08:46:34;100834.47;;;21.49;100.00
72157;BME280;60035;52.122;5.406;2023-07-28T08:49:02;100836.25;;;21.49;100.00
72157;BME280;60035;52.122;5.406;2023-07-28T08:51:28;100837.84;;;21.62;100.00
72157;BME280;60035;52.122;5.406;2023-07-28T08:53:55;100834.16;;;21.65;100.00
72157;BME280;60035;52.122;5.406;2023-07-28T08:56:22;100839.28;;;21.78;100.00
72157;BME280;60035;52.122;5.406;2023-07-28T08:58:57;100839.03;;;21.81;100.00
72157;BME280;60035;52.122;5.406;2023-07-28T09:01:24;100842.94;;;21.87;100.00
72157;BME280;60035;52.122;5.406;2023-07-28T09:03:51;100843.19;;;21.84;100.00
72157;BME280;60035;52.122;5.406;2023-07-28T09:06:17;100842.34;;;21.72;100.00
72157;BME280;60035;52.122;5.406;2023-07-28T09:08:45;100846.72;;;21.71;100.00
72157;BME280;60035;52.122;5.406;2023-07-28T09:11:13;100851.59;;;21.76;100.00
72157;BME280;60035;52.122;5.406;2023-07-28T09:13:40;100846.84;;;21.70;100.00
72157;BME280;60035;52.122;5.406;2023-07-28T09:16:18;100850.41;;;21.69;100.00
72157;BME280;60035;52.122;5.406;2023-07-28T09:18:46;100852.16;;;21.57;100.00
72157;BME280;60035;52.122;5.406;2023-07-28T09:21:20;100847.81;;;21.69;100.00
72157;BME280;60035;52.122;5.406;2023-07-28T09:23:55;100850.16;;;22.06;100.00
72157;BME280;60035;52.122;5.406;2023-07-28T09:26:22;100842.41;;;22.38;100.00
72157;BME280;60035;52.122;5.406;2023-07-28T09:28:49;100845.69;;;22.63;100.00
72157;BME280;60035;52.122;5.406;2023-07-28T09:31:16;100844.47;;;22.67;100.00
72157;BME280;60035;52.122;5.406;2023-07-28T09:33:55;100846.09;;;22.79;100.00
72157;BME280;60035;52.122;5.406;2023-07-28T09:36:22;100847.75;;;22.80;100.00
72157;BME280;60035;52.122;5.406;2023-07-28T09:38:53;100841.78;;;22.90;100.00
72157;BME280;60035;52.122;5.406;2023-07-28T09:41:22;100844.78;;;22.85;100.00
72157;BME280;60035;52.122;5.406;2023-07-28T09:43:48;100846.84;;;22.91;100.00
72157;BME280;60035;52.122;5.406;2023-07-28T09:46:17;100849.50;;;23.12;100.00
72157;BME280;60035;52.122;5.406;2023-07-28T09:48:47;100842.84;;;23.20;100.00
72157;BME280;60035;52.122;5.406;2023-07-28T09:51:18;100841.94;;;23.31;100.00
72157;BME280;60035;52.122;5.406;2023-07-28T09:53:49;100850.38;;;23.34;99.65
72157;BME280;60035;52.122;5.406;2023-07-28T10:31:29;100856.63;;;24.75;91.28
72157;BME280;60035;52.122;5.406;2023-07-28T10:33:56;100840.63;;;24.98;86.98
72157;BME280;60035;52.122;5.406;2023-07-28T10:39:15;100847.38;;;24.61;87.19
72157;BME280;60035;52.122;5.406;2023-07-28T10:44:30;100845.53;;;25.30;86.03
72157;BME280;60035;52.122;5.406;2023-07-28T10:46:57;100846.72;;;25.55;84.44
72157;BME280;60035;52.122;5.406;2023-07-28T10:49:28;100854.75;;;25.44;79.21
72157;BME280;60035;52.122;5.406;2023-07-28T10:51:54;100845.81;;;25.27;80.36
72157;BME280;60035;52.122;5.406;2023-07-28T10:54:21;100852.34;;;25.03;81.52
72157;BME280;60035;52.122;5.406;2023-07-28T10:56:48;100853.66;;;25.47;84.46
72157;BME280;60035;52.122;5.406;2023-07-28T10:59:15;100847.81;;;25.90;81.85
72157;BME280;60035;52.122;5.406;2023-07-28T11:01:42;100859.31;;;25.89;79.92
72157;BME280;60035;52.122;5.406;2023-07-28T11:04:10;100856.53;;;25.91;82.51
72157;BME280;60035;52.122;5.406;2023-07-28T11:06:42;100854.97;;;25.98;81.09
72157;BME280;60035;52.122;5.406;2023-07-28T11:09:10;100861.47;;;25.66;82.60
72157;BME280;60035;52.122;5.406;2023-07-28T11:11:38;100868.78;;;25.63;83.57
72157;BME280;60035;52.122;5.406;2023-07-28T11:14:06;100859.47;;;25.78;83.92
72157;BME280;60035;52.122;5.406;2023-07-28T11:16:37;100862.22;;;26.14;83.19
72157;BME280;60035;52.122;5.406;2023-07-28T11:19:09;100865.84;;;26.31;81.16
72157;BME280;60035;52.122;5.406;2023-07-28T11:21:52;100872.59;;;26.16;83.73
72157;BME280;60035;52.122;5.406;2023-07-28T11:24:20;100874.22;;;26.17;82.72
72157;BME280;60035;52.122;5.406;2023-07-28T11:26:47;100872.44;;;25.89;81.50
72157;BME280;60035;52.122;5.406;2023-07-28T11:29:15;100871.00;;;25.95;83.11
72157;BME280;60035;52.122;5.406;2023-07-28T11:31:42;100881.31;;;25.78;81.78
72157;BME280;60035;52.122;5.406;2023-07-28T11:34:16;100876.84;;;25.51;83.17
72157;BME280;60035;52.122;5.406;2023-07-28T11:36:42;100881.94;;;25.33;84.67
72157;BME280;60035;52.122;5.406;2023-07-28T11:39:09;100878.34;;;25.44;85.35
72157;BME280;60035;52.122;5.406;2023-07-28T11:41:37;100870.72;;;25.60;84.76
72157;BME280;60035;52.122;5.406;2023-07-28T11:44:05;100879.16;;;25.54;86.35
72157;BME280;60035;52.122;5.406;2023-07-28T11:46:36;100876.28;;;25.48;85.79
72157;BME280;60035;52.122;5.406;2023-07-28T11:49:18;100873.09;;;25.44;85.38
72157;BME280;60035;52.122;5.406;2023-07-28T11:51:53;100870.47;;;25.54;85.64
72157;BME280;60035;52.122;5.406;2023-07-28T11:54:22;100874.22;;;25.51;86.04
72157;BME280;60035;52.122;5.406;2023-07-28T11:56:50;100876.66;;;26.00;85.14
72157;BME280;60035;52.122;5.406;2023-07-28T11:59:18;100880.91;;;26.11;81.98
72157;BME280;60035;52.122;5.406;2023-07-28T12:01:52;100876.03;;;26.16;81.56
72157;BME280;60035;52.122;5.406;2023-07-28T12:04:24;100870.09;;;26.60;79.54
72157;BME280;60035;52.122;5.406;2023-07-28T12:07:06;100880.44;;;26.43;78.32
72157;BME280;60035;52.122;5.406;2023-07-28T12:12:13;100884.81;;;26.53;76.95
72157;BME280;60035;52.122;5.406;2023-07-28T12:14:50;100882.19;;;26.89;76.09
72157;BME280;60035;52.122;5.406;2023-07-28T12:17:24;100877.31;;;26.76;75.01
72157;BME280;60035;52.122;5.406;2023-07-28T12:20:12;100881.09;;;26.46;78.31
72157;BME280;60035;52.122;5.406;2023-07-28T12:22:42;100892.59;;;26.17;75.61
72157;BME280;60035;52.122;5.406;2023-07-28T12:25:10;100887.56;;;26.05;76.69
72157;BME280;60035;52.122;5.406;2023-07-28T12:27:37;100893.78;;;26.32;75.41
72157;BME280;60035;52.122;5.406;2023-07-28T12:30:04;100894.97;;;26.38;72.97
72157;BME280;60035;52.122;5.406;2023-07-28T12:32:31;100893.03;;;26.40;72.64
72157;BME280;60035;52.122;5.406;2023-07-28T12:35:00;100881.28;;;26.62;72.50
72157;BME280;60035;52.122;5.406;2023-07-28T12:37:40;100887.69;;;26.96;71.59
72157;BME280;60035;52.122;5.406;2023-07-28T12:40:11;100882.47;;;26.68;71.03
72157;BME280;60035;52.122;5.406;2023-07-28T12:42:58;100875.25;;;26.70;72.89
72157;BME280;60035;52.122;5.406;2023-07-28T12:45:28;100880.47;;;27.24;72.45
72157;BME280;60035;52.122;5.406;2023-07-28T12:48:15;100884.66;;;27.08;71.33
72157;BME280;60035;52.122;5.406;2023-07-28T12:50:44;100888.44;;;26.88;71.15
72157;BME280;60035;52.122;5.406;2023-07-28T12:53:11;100876.31;;;26.59;72.68
72157;BME280;60035;52.122;5.406;2023-07-28T12:55:44;100884.78;;;27.25;72.17
72157;BME280;60035;52.122;5.406;2023-07-28T12:58:13;100882.66;;;27.47;67.73
72157;BME280;60035;52.122;5.406;2023-07-28T13:00:43;100874.66;;;27.99;65.32
72157;BME280;60035;52.122;5.406;2023-07-28T13:03:13;100878.09;;;27.57;66.57
72157;BME280;60035;52.122;5.406;2023-07-28T13:05:39;100880.03;;;27.47;65.12
72157;BME280;60035;52.122;5.406;2023-07-28T13:08:10;100891.66;;;27.00;68.32
72157;BME280;60035;52.122;5.406;2023-07-28T13:10:36;100887.31;;;26.90;68.91
72157;BME280;60035;52.122;5.406;2023-07-28T13:13:06;100882.41;;;27.14;68.49
72157;BME280;60035;52.122;5.406;2023-07-28T13:15:37;100883.47;;;27.29;67.73
72157;BME280;60035;52.122;5.406;2023-07-28T13:18:04;100896.38;;;27.14;66.71
72157;BME280;60035;52.122;5.406;2023-07-28T13:20:31;100888.56;;;27.31;68.33
72157;BME280;60035;52.122;5.406;2023-07-28T13:22:57;100884.59;;;27.45;66.54
72157;BME280;60035;52.122;5.406;2023-07-28T13:25:24;100890.78;;;27.62;67.71
72157;BME280;60035;52.122;5.406;2023-07-28T13:27:51;100887.66;;;27.66;66.90
72157;BME280;60035;52.122;5.406;2023-07-28T13:30:17;100888.09;;;28.14;65.15